sensor_id;sensor_type;location;lat;lon;timestamp;P1;durP1;ratioP1;P2;durP2;ratioP2
52898;SDS011;38763;53.096;6.062;2023-04-21T00:00:04;32.50;;;19.20;;
52898;SDS011;38763;53.096;6.062;2023-04-21T00:02:33;35.55;;;17.98;;
52898;SDS011;38763;53.096;6.062;2023-04-21T00:05:03;36.35;;;20.20;;
52898;SDS011;38763;53.096;6.062;2023-04-21T00:07:31;34.20;;;19.13;;
52898;SDS011;38763;53.096;6.062;2023-04-21T00:09:58;40.85;;;19.27;;
52898;SDS011;38763;53.096;6.062;2023-04-21T00:12:23;34.63;;;19.15;;
52898;SDS011;38763;53.096;6.062;2023-04-21T00:14:49;37.20;;;19.00;;
52898;SDS011;38763;53.096;6.062;2023-04-21T00:17:15;34.03;;;16.88;;
52898;SDS011;38763;53.096;6.062;2023-04-21T00:19:40;33.95;;;19.02;;
52898;SDS011;38763;53.096;6.062;2023-04-21T00:22:06;36.10;;;19.10;;
52898;SDS011;38763;53.096;6.062;2023-04-21T00:24:36;35.75;;;19.55;;
52898;SDS011;38763;53.096;6.062;2023-04-21T00:27:01;29.73;;;17.30;;
52898;SDS011;38763;53.096;6.062;2023-04-21T00:29:27;33.75;;;17.23;;
52898;SDS011;38763;53.096;6.062;2023-04-21T00:31:53;32.95;;;17.50;;
52898;SDS011;38763;53.096;6.062;2023-04-21T00:34:18;33.83;;;17.48;;
52898;SDS011;38763;53.096;6.062;2023-04-21T00:36:44;33.75;;;18.85;;
52898;SDS011;38763;53.096;6.062;2023-04-21T00:39:10;31.02;;;17.00;;
52898;SDS011;38763;53.096;6.062;2023-04-21T00:41:35;32.42;;;16.33;;
52898;SDS011;38763;53.096;6.062;2023-04-21T00:44:06;35.55;;;19.60;;
52898;SDS011;38763;53.096;6.062;2023-04-21T00:46:33;35.83;;;18.88;;
52898;SDS011;38763;53.096;6.062;2023-04-21T00:48:59;32.58;;;17.92;;
52898;SDS011;38763;53.096;6.062;2023-04-21T00:51:28;32.70;;;18.20;;
52898;SDS011;38763;53.096;6.062;2023-04-21T00:53:57;33.38;;;16.88;;
52898;SDS011;38763;53.096;6.062;2023-04-21T00:56:25;38.67;;;19.77;;
52898;SDS011;38763;53.096;6.062;2023-04-21T00:58:52;31.75;;;17.42;;
52898;SDS011;38763;53.096;6.062;2023-04-21T01:01:18;35.75;;;17.73;;
52898;SDS011;38763;53.096;6.062;2023-04-21T01:03:44;30.92;;;17.65;;
52898;SDS011;38763;53.096;6.062;2023-04-21T01:06:12;33.67;;;18.17;;
52898;SDS011;38763;53.096;6.062;2023-04-21T01:08:38;32.53;;;18.08;;
52898;SDS011;38763;53.096;6.062;2023-04-21T01:11:08;30.23;;;17.42;;
52898;SDS011;38763;53.096;6.062;2023-04-21T01:13:35;28.83;;;16.98;;
52898;SDS011;38763;53.096;6.062;2023-04-21T01:16:01;28.23;;;16.55;;
52898;SDS011;38763;53.096;6.062;2023-04-21T01:18:26;34.00;;;16.98;;
52898;SDS011;38763;53.096;6.062;2023-04-21T01:20:53;31.73;;;17.90;;
52898;SDS011;38763;53.096;6.062;2023-04-21T01:23:18;28.35;;;17.15;;
52898;SDS011;38763;53.096;6.062;2023-04-21T01:25:45;27.73;;;16.25;;
52898;SDS011;38763;53.096;6.062;2023-04-21T01:28:11;26.70;;;14.73;;
52898;SDS011;38763;53.096;6.062;2023-04-21T01:30:37;29.60;;;16.25;;
52898;SDS011;38763;53.096;6.062;2023-04-21T01:33:03;30.05;;;16.42;;
52898;SDS011;38763;53.096;6.062;2023-04-21T01:35:28;30.67;;;16.73;;
52898;SDS011;38763;53.096;6.062;2023-04-21T01:37:54;32.33;;;17.23;;
52898;SDS011;38763;53.096;6.062;2023-04-21T01:40:20;26.38;;;15.13;;
52898;SDS011;38763;53.096;6.062;2023-04-21T01:42:45;29.80;;;17.50;;
52898;SDS011;38763;53.096;6.062;2023-04-21T01:45:11;26.15;;;15.30;;
52898;SDS011;38763;53.096;6.062;2023-04-21T01:47:37;28.30;;;15.93;;
52898;SDS011;38763;53.096;6.062;2023-04-21T01:50:03;30.38;;;16.58;;
52898;SDS011;38763;53.096;6.062;2023-04-21T01:52:29;28.73;;;14.45;;
52898;SDS011;38763;53.096;6.062;2023-04-21T01:54:54;30.60;;;16.55;;
52898;SDS011;38763;53.096;6.062;2023-04-21T01:57:20;32.17;;;16.40;;
52898;SDS011;38763;53.096;6.062;2023-04-21T01:59:46;33.03;;;15.88;;
52898;SDS011;38763;53.096;6.062;2023-04-21T02:02:13;35.50;;;16.30;;
52898;SDS011;38763;53.096;6.062;2023-04-21T02:04:39;32.38;;;17.25;;
52898;SDS011;38763;53.096;6.062;2023-04-21T02:07:04;29.48;;;15.65;;
52898;SDS011;38763;53.096;6.062;2023-04-21T02:09:30;34.22;;;16.85;;
52898;SDS011;38763;53.096;6.062;2023-04-21T02:11:56;29.63;;;16.45;;
52898;SDS011;38763;53.096;6.062;2023-04-21T02:14:23;30.80;;;16.85;;
52898;SDS011;38763;53.096;6.062;2023-04-21T02:16:49;30.35;;;14.85;;
52898;SDS011;38763;53.096;6.062;2023-04-21T02:19:14;32.45;;;16.45;;
52898;SDS011;38763;53.096;6.062;2023-04-21T02:21:40;27.80;;;16.13;;
52898;SDS011;38763;53.096;6.062;2023-04-21T02:24:06;33.55;;;17.50;;
52898;SDS011;38763;53.096;6.062;2023-04-21T02:26:31;31.23;;;16.30;;
52898;SDS011;38763;53.096;6.062;2023-04-21T02:28:57;27.98;;;15.40;;
52898;SDS011;38763;53.096;6.062;2023-04-21T02:31:22;28.13;;;15.75;;
52898;SDS011;38763;53.096;6.062;2023-04-21T02:33:48;32.10;;;16.02;;
52898;SDS011;38763;53.096;6.062;2023-04-21T02:36:14;33.95;;;15.65;;
52898;SDS011;38763;53.096;6.062;2023-04-21T02:38:39;31.35;;;16.80;;
52898;SDS011;38763;53.096;6.062;2023-04-21T02:41:05;30.02;;;16.73;;
52898;SDS011;38763;53.096;6.062;2023-04-21T02:43:31;29.75;;;16.13;;
52898;SDS011;38763;53.096;6.062;2023-04-21T02:45:56;33.03;;;15.65;;
52898;SDS011;38763;53.096;6.062;2023-04-21T02:48:22;28.67;;;15.68;;
52898;SDS011;38763;53.096;6.062;2023-04-21T02:50:48;28.23;;;15.63;;
52898;SDS011;38763;53.096;6.062;2023-04-21T02:53:15;28.33;;;15.85;;
52898;SDS011;38763;53.096;6.062;2023-04-21T02:55:41;26.92;;;15.05;;
52898;SDS011;38763;53.096;6.062;2023-04-21T02:58:06;27.90;;;15.55;;
52898;SDS011;38763;53.096;6.062;2023-04-21T03:00:32;29.75;;;14.85;;
52898;SDS011;38763;53.096;6.062;2023-04-21T03:02:58;25.85;;;14.13;;
52898;SDS011;38763;53.096;6.062;2023-04-21T03:05:23;29.70;;;13.82;;
52898;SDS011;38763;53.096;6.062;2023-04-21T03:07:49;25.30;;;14.85;;
52898;SDS011;38763;53.096;6.062;2023-04-21T03:10:15;26.73;;;14.75;;
52898;SDS011;38763;53.096;6.062;2023-04-21T03:12:41;26.85;;;15.27;;
52898;SDS011;38763;53.096;6.062;2023-04-21T03:15:06;25.23;;;14.80;;
52898;SDS011;38763;53.096;6.062;2023-04-21T03:17:32;25.30;;;12.98;;
52898;SDS011;38763;53.096;6.062;2023-04-21T03:19:58;25.80;;;14.90;;
52898;SDS011;38763;53.096;6.062;2023-04-21T03:22:23;26.40;;;14.60;;
52898;SDS011;38763;53.096;6.062;2023-04-21T03:24:50;28.02;;;14.93;;
52898;SDS011;38763;53.096;6.062;2023-04-21T03:27:15;27.63;;;14.77;;
52898;SDS011;38763;53.096;6.062;2023-04-21T03:29:41;32.00;;;16.38;;
52898;SDS011;38763;53.096;6.062;2023-04-21T03:32:06;27.45;;;14.52;;
52898;SDS011;38763;53.096;6.062;2023-04-21T03:34:32;31.40;;;14.60;;
52898;SDS011;38763;53.096;6.062;2023-04-21T03:36:58;22.48;;;13.30;;
52898;SDS011;38763;53.096;6.062;2023-04-21T03:39:23;26.63;;;14.50;;
52898;SDS011;38763;53.096;6.062;2023-04-21T03:41:49;27.95;;;14.93;;
52898;SDS011;38763;53.096;6.062;2023-04-21T03:44:15;26.05;;;12.57;;
52898;SDS011;38763;53.096;6.062;2023-04-21T03:46:40;26.77;;;14.60;;
52898;SDS011;38763;53.096;6.062;2023-04-21T03:49:06;30.05;;;13.55;;
52898;SDS011;38763;53.096;6.062;2023-04-21T03:51:32;27.65;;;13.48;;
52898;SDS011;38763;53.096;6.062;2023-04-21T03:53:57;25.55;;;13.10;;
52898;SDS011;38763;53.096;6.062;2023-04-21T03:56:23;26.10;;;12.70;;
52898;SDS011;38763;53.096;6.062;2023-04-21T03:58:49;27.45;;;13.82;;
52898;SDS011;38763;53.096;6.062;2023-04-21T04:01:15;29.58;;;13.50;;
52898;SDS011;38763;53.096;6.062;2023-04-21T04:03:40;24.95;;;12.63;;
52898;SDS011;38763;53.096;6.062;2023-04-21T04:06:06;25.77;;;13.35;;
52898;SDS011;38763;53.096;6.062;2023-04-21T04:08:32;30.83;;;13.90;;
52898;SDS011;38763;53.096;6.062;2023-04-21T04:10:57;28.67;;;14.35;;
52898;SDS011;38763;53.096;6.062;2023-04-21T04:13:23;22.73;;;12.63;;
52898;SDS011;38763;53.096;6.062;2023-04-21T04:15:50;24.60;;;13.18;;
52898;SDS011;38763;53.096;6.062;2023-04-21T04:18:16;21.60;;;13.32;;
52898;SDS011;38763;53.096;6.062;2023-04-21T04:20:42;25.48;;;13.93;;
52898;SDS011;38763;53.096;6.062;2023-04-21T04:23:07;25.58;;;12.93;;
52898;SDS011;38763;53.096;6.062;2023-04-21T04:25:33;23.80;;;12.77;;
52898;SDS011;38763;53.096;6.062;2023-04-21T04:27:59;27.75;;;13.85;;
52898;SDS011;38763;53.096;6.062;2023-04-21T04:30:24;26.30;;;13.00;;
52898;SDS011;38763;53.096;6.062;2023-04-21T04:32:52;25.77;;;13.13;;
52898;SDS011;38763;53.096;6.062;2023-04-21T04:35:18;24.50;;;12.80;;
52898;SDS011;38763;53.096;6.062;2023-04-21T04:37:44;25.98;;;13.77;;
52898;SDS011;38763;53.096;6.062;2023-04-21T04:40:09;26.27;;;14.30;;
52898;SDS011;38763;53.096;6.062;2023-04-21T04:42:39;23.30;;;12.52;;
52898;SDS011;38763;53.096;6.062;2023-04-21T04:45:05;23.30;;;12.98;;
52898;SDS011;38763;53.096;6.062;2023-04-21T04:47:35;23.17;;;12.52;;
52898;SDS011;38763;53.096;6.062;2023-04-21T04:50:03;25.33;;;12.75;;
52898;SDS011;38763;53.096;6.062;2023-04-21T04:52:30;25.58;;;13.02;;
52898;SDS011;38763;53.096;6.062;2023-04-21T04:54:55;22.63;;;12.00;;
52898;SDS011;38763;53.096;6.062;2023-04-21T04:57:21;22.85;;;13.18;;
52898;SDS011;38763;53.096;6.062;2023-04-21T04:59:47;22.67;;;12.73;;
52898;SDS011;38763;53.096;6.062;2023-04-21T05:02:12;19.83;;;12.43;;
52898;SDS011;38763;53.096;6.062;2023-04-21T05:04:38;24.77;;;13.07;;
52898;SDS011;38763;53.096;6.062;2023-04-21T05:07:04;20.23;;;10.95;;
52898;SDS011;38763;53.096;6.062;2023-04-21T05:09:32;24.98;;;10.85;;
52898;SDS011;38763;53.096;6.062;2023-04-21T05:11:58;23.70;;;12.70;;
52898;SDS011;38763;53.096;6.062;2023-04-21T05:14:23;20.70;;;11.00;;
52898;SDS011;38763;53.096;6.062;2023-04-21T05:16:50;23.58;;;10.55;;
52898;SDS011;38763;53.096;6.062;2023-04-21T05:19:16;27.17;;;12.30;;
52898;SDS011;38763;53.096;6.062;2023-04-21T05:21:42;24.65;;;11.05;;
52898;SDS011;38763;53.096;6.062;2023-04-21T05:24:07;21.85;;;12.43;;
52898;SDS011;38763;53.096;6.062;2023-04-21T05:26:33;22.60;;;10.93;;
52898;SDS011;38763;53.096;6.062;2023-04-21T05:28:59;23.52;;;11.35;;
52898;SDS011;38763;53.096;6.062;2023-04-21T05:31:24;22.92;;;12.23;;
52898;SDS011;38763;53.096;6.062;2023-04-21T05:33:50;20.67;;;10.80;;
52898;SDS011;38763;53.096;6.062;2023-04-21T05:36:16;19.17;;;11.45;;
52898;SDS011;38763;53.096;6.062;2023-04-21T05:38:44;21.58;;;10.32;;
52898;SDS011;38763;53.096;6.062;2023-04-21T05:41:10;23.20;;;11.45;;
52898;SDS011;38763;53.096;6.062;2023-04-21T05:43:35;24.90;;;11.77;;
52898;SDS011;38763;53.096;6.062;2023-04-21T05:46:01;23.52;;;11.77;;
52898;SDS011;38763;53.096;6.062;2023-04-21T05:48:28;21.85;;;10.77;;
52898;SDS011;38763;53.096;6.062;2023-04-21T05:50:54;18.52;;;10.38;;
52898;SDS011;38763;53.096;6.062;2023-04-21T05:53:20;19.58;;;11.32;;
52898;SDS011;38763;53.096;6.062;2023-04-21T05:55:47;20.77;;;10.85;;
52898;SDS011;38763;53.096;6.062;2023-04-21T05:58:13;20.73;;;10.43;;
52898;SDS011;38763;53.096;6.062;2023-04-21T06:00:39;25.17;;;11.55;;
52898;SDS011;38763;53.096;6.062;2023-04-21T06:03:05;19.10;;;10.45;;
52898;SDS011;38763;53.096;6.062;2023-04-21T06:05:31;20.38;;;9.93;;
52898;SDS011;38763;53.096;6.062;2023-04-21T06:07:56;17.73;;;8.57;;
52898;SDS011;38763;53.096;6.062;2023-04-21T06:10:22;20.23;;;10.70;;
52898;SDS011;38763;53.096;6.062;2023-04-21T06:12:48;21.63;;;10.77;;
52898;SDS011;38763;53.096;6.062;2023-04-21T06:15:13;19.75;;;10.23;;
52898;SDS011;38763;53.096;6.062;2023-04-21T06:17:39;24.45;;;10.55;;
52898;SDS011;38763;53.096;6.062;2023-04-21T06:20:05;18.75;;;10.02;;
52898;SDS011;38763;53.096;6.062;2023-04-21T06:22:32;16.55;;;9.07;;
52898;SDS011;38763;53.096;6.062;2023-04-21T06:24:58;22.08;;;10.70;;
52898;SDS011;38763;53.096;6.062;2023-04-21T06:27:23;19.25;;;10.18;;
52898;SDS011;38763;53.096;6.062;2023-04-21T06:29:52;19.50;;;10.52;;
52898;SDS011;38763;53.096;6.062;2023-04-21T06:32:19;26.33;;;10.75;;
52898;SDS011;38763;53.096;6.062;2023-04-21T06:34:44;18.20;;;10.10;;
52898;SDS011;38763;53.096;6.062;2023-04-21T06:37:10;20.90;;;10.63;;
52898;SDS011;38763;53.096;6.062;2023-04-21T06:39:35;24.90;;;12.00;;
52898;SDS011;38763;53.096;6.062;2023-04-21T06:42:01;18.45;;;9.85;;
52898;SDS011;38763;53.096;6.062;2023-04-21T06:44:27;19.38;;;9.48;;
52898;SDS011;38763;53.096;6.062;2023-04-21T06:46:53;18.50;;;10.35;;
52898;SDS011;38763;53.096;6.062;2023-04-21T06:49:19;18.98;;;10.15;;
52898;SDS011;38763;53.096;6.062;2023-04-21T06:51:44;20.42;;;10.02;;
52898;SDS011;38763;53.096;6.062;2023-04-21T06:54:10;19.52;;;10.10;;
52898;SDS011;38763;53.096;6.062;2023-04-21T06:56:36;21.73;;;9.10;;
52898;SDS011;38763;53.096;6.062;2023-04-21T06:59:01;17.05;;;9.52;;
52898;SDS011;38763;53.096;6.062;2023-04-21T07:01:27;21.77;;;10.65;;
52898;SDS011;38763;53.096;6.062;2023-04-21T07:03:53;18.98;;;10.05;;
52898;SDS011;38763;53.096;6.062;2023-04-21T07:06:18;23.92;;;10.45;;
52898;SDS011;38763;53.096;6.062;2023-04-21T07:08:44;20.08;;;9.70;;
52898;SDS011;38763;53.096;6.062;2023-04-21T07:11:10;16.92;;;8.93;;
52898;SDS011;38763;53.096;6.062;2023-04-21T07:13:35;18.67;;;8.88;;
52898;SDS011;38763;53.096;6.062;2023-04-21T07:16:01;19.42;;;8.63;;
52898;SDS011;38763;53.096;6.062;2023-04-21T07:18:26;17.67;;;9.88;;
52898;SDS011;38763;53.096;6.062;2023-04-21T07:20:52;21.10;;;10.38;;
52898;SDS011;38763;53.096;6.062;2023-04-21T07:23:18;17.48;;;9.45;;
52898;SDS011;38763;53.096;6.062;2023-04-21T07:25:43;18.73;;;10.25;;
52898;SDS011;38763;53.096;6.062;2023-04-21T07:28:09;21.70;;;9.90;;
52898;SDS011;38763;53.096;6.062;2023-04-21T07:30:35;19.05;;;9.95;;
52898;SDS011;38763;53.096;6.062;2023-04-21T07:33:01;19.10;;;9.55;;
52898;SDS011;38763;53.096;6.062;2023-04-21T07:35:27;16.30;;;8.43;;
52898;SDS011;38763;53.096;6.062;2023-04-21T07:37:52;19.33;;;9.30;;
52898;SDS011;38763;53.096;6.062;2023-04-21T07:40:18;18.52;;;8.35;;
52898;SDS011;38763;53.096;6.062;2023-04-21T07:42:44;17.85;;;9.85;;
52898;SDS011;38763;53.096;6.062;2023-04-21T07:45:10;18.85;;;9.82;;
52898;SDS011;38763;53.096;6.062;2023-04-21T07:47:36;20.90;;;9.45;;
52898;SDS011;38763;53.096;6.062;2023-04-21T07:50:01;20.17;;;9.70;;
52898;SDS011;38763;53.096;6.062;2023-04-21T07:52:27;20.15;;;9.75;;
52898;SDS011;38763;53.096;6.062;2023-04-21T07:54:53;18.65;;;9.73;;
52898;SDS011;38763;53.096;6.062;2023-04-21T07:57:18;16.83;;;9.35;;
52898;SDS011;38763;53.096;6.062;2023-04-21T07:59:44;19.73;;;9.32;;
52898;SDS011;38763;53.096;6.062;2023-04-21T08:02:10;17.92;;;8.88;;
52898;SDS011;38763;53.096;6.062;2023-04-21T08:04:36;20.73;;;9.32;;
52898;SDS011;38763;53.096;6.062;2023-04-21T08:07:01;17.00;;;8.95;;
52898;SDS011;38763;53.096;6.062;2023-04-21T08:09:27;17.90;;;7.72;;
52898;SDS011;38763;53.096;6.062;2023-04-21T08:11:53;15.80;;;8.38;;
52898;SDS011;38763;53.096;6.062;2023-04-21T08:14:19;18.65;;;7.93;;
52898;SDS011;38763;53.096;6.062;2023-04-21T08:16:45;15.57;;;8.20;;
52898;SDS011;38763;53.096;6.062;2023-04-21T08:19:11;15.40;;;8.07;;
52898;SDS011;38763;53.096;6.062;2023-04-21T08:21:36;16.15;;;7.82;;
52898;SDS011;38763;53.096;6.062;2023-04-21T08:24:03;15.07;;;8.10;;
52898;SDS011;38763;53.096;6.062;2023-04-21T08:26:29;14.05;;;7.40;;
52898;SDS011;38763;53.096;6.062;2023-04-21T08:28:57;14.35;;;7.55;;
52898;SDS011;38763;53.096;6.062;2023-04-21T08:31:24;16.23;;;8.10;;
52898;SDS011;38763;53.096;6.062;2023-04-21T08:33:49;18.63;;;7.78;;
52898;SDS011;38763;53.096;6.062;2023-04-21T08:36:15;17.17;;;8.18;;
52898;SDS011;38763;53.096;6.062;2023-04-21T08:38:41;14.45;;;7.32;;
52898;SDS011;38763;53.096;6.062;2023-04-21T08:41:08;15.18;;;7.13;;
52898;SDS011;38763;53.096;6.062;2023-04-21T08:43:34;17.50;;;8.20;;
52898;SDS011;38763;53.096;6.062;2023-04-21T08:46:01;15.55;;;7.78;;
52898;SDS011;38763;53.096;6.062;2023-04-21T08:48:30;14.88;;;8.27;;
52898;SDS011;38763;53.096;6.062;2023-04-21T08:51:00;13.77;;;7.43;;
52898;SDS011;38763;53.096;6.062;2023-04-21T08:53:27;12.52;;;7.38;;
52898;SDS011;38763;53.096;6.062;2023-04-21T08:55:53;13.82;;;7.38;;
52898;SDS011;38763;53.096;6.062;2023-04-21T08:58:20;15.73;;;8.43;;
52898;SDS011;38763;53.096;6.062;2023-04-21T09:00:50;13.70;;;7.70;;
52898;SDS011;38763;53.096;6.062;2023-04-21T09:03:22;13.60;;;7.85;;
52898;SDS011;38763;53.096;6.062;2023-04-21T09:08:24;14.20;;;8.50;;
52898;SDS011;38763;53.096;6.062;2023-04-21T09:10:52;15.40;;;7.78;;
52898;SDS011;38763;53.096;6.062;2023-04-21T09:13:18;25.38;;;8.38;;
52898;SDS011;38763;53.096;6.062;2023-04-21T09:15:45;16.27;;;8.25;;
52898;SDS011;38763;53.096;6.062;2023-04-21T09:18:16;12.60;;;7.78;;
52898;SDS011;38763;53.096;6.062;2023-04-21T09:20:48;20.05;;;9.02;;
52898;SDS011;38763;53.096;6.062;2023-04-21T09:23:16;14.95;;;7.47;;
52898;SDS011;38763;53.096;6.062;2023-04-21T09:25:43;14.70;;;7.57;;
52898;SDS011;38763;53.096;6.062;2023-04-21T09:28:10;14.60;;;7.18;;
52898;SDS011;38763;53.096;6.062;2023-04-21T09:30:38;18.98;;;8.00;;
52898;SDS011;38763;53.096;6.062;2023-04-21T09:33:05;14.55;;;7.72;;
52898;SDS011;38763;53.096;6.062;2023-04-21T09:35:32;17.27;;;8.15;;
52898;SDS011;38763;53.096;6.062;2023-04-21T09:37:59;13.82;;;8.13;;
52898;SDS011;38763;53.096;6.062;2023-04-21T09:40:27;16.20;;;8.35;;
52898;SDS011;38763;53.096;6.062;2023-04-21T09:42:56;14.85;;;7.75;;
52898;SDS011;38763;53.096;6.062;2023-04-21T09:45:22;17.17;;;7.82;;
52898;SDS011;38763;53.096;6.062;2023-04-21T09:47:50;15.20;;;7.45;;
52898;SDS011;38763;53.096;6.062;2023-04-21T09:50:20;19.65;;;8.40;;
52898;SDS011;38763;53.096;6.062;2023-04-21T09:52:49;16.27;;;8.23;;
52898;SDS011;38763;53.096;6.062;2023-04-21T09:55:17;15.35;;;7.60;;
52898;SDS011;38763;53.096;6.062;2023-04-21T09:57:46;19.23;;;7.88;;
52898;SDS011;38763;53.096;6.062;2023-04-21T10:00:14;17.50;;;7.45;;
52898;SDS011;38763;53.096;6.062;2023-04-21T10:02:43;16.90;;;8.38;;
52898;SDS011;38763;53.096;6.062;2023-04-21T10:05:11;16.80;;;8.30;;
52898;SDS011;38763;53.096;6.062;2023-04-21T10:07:37;15.38;;;8.18;;
52898;SDS011;38763;53.096;6.062;2023-04-21T10:10:03;12.23;;;7.57;;
52898;SDS011;38763;53.096;6.062;2023-04-21T10:12:33;15.07;;;7.50;;
52898;SDS011;38763;53.096;6.062;2023-04-21T10:15:02;16.38;;;7.45;;
52898;SDS011;38763;53.096;6.062;2023-04-21T10:17:50;20.80;;;7.75;;
52898;SDS011;38763;53.096;6.062;2023-04-21T10:20:16;15.23;;;8.20;;
52898;SDS011;38763;53.096;6.062;2023-04-21T10:22:42;13.63;;;7.40;;
52898;SDS011;38763;53.096;6.062;2023-04-21T10:25:07;14.63;;;7.28;;
52898;SDS011;38763;53.096;6.062;2023-04-21T10:27:35;20.95;;;7.72;;
52898;SDS011;38763;53.096;6.062;2023-04-21T10:30:18;11.73;;;6.68;;
52898;SDS011;38763;53.096;6.062;2023-04-21T10:32:44;16.92;;;6.82;;
52898;SDS011;38763;53.096;6.062;2023-04-21T10:35:11;16.38;;;7.47;;
52898;SDS011;38763;53.096;6.062;2023-04-21T10:37:39;13.43;;;7.35;;
52898;SDS011;38763;53.096;6.062;2023-04-21T10:40:07;13.70;;;7.90;;
52898;SDS011;38763;53.096;6.062;2023-04-21T10:42:55;17.02;;;8.13;;
52898;SDS011;38763;53.096;6.062;2023-04-21T10:45:23;13.07;;;6.63;;
52898;SDS011;38763;53.096;6.062;2023-04-21T10:47:50;12.30;;;6.93;;
52898;SDS011;38763;53.096;6.062;2023-04-21T10:50:18;14.95;;;7.72;;
52898;SDS011;38763;53.096;6.062;2023-04-21T10:52:53;12.53;;;6.83;;
52898;SDS011;38763;53.096;6.062;2023-04-21T10:55:19;16.50;;;8.00;;
52898;SDS011;38763;53.096;6.062;2023-04-21T10:57:46;14.65;;;7.47;;
52898;SDS011;38763;53.096;6.062;2023-04-21T11:00:20;10.43;;;6.68;;
52898;SDS011;38763;53.096;6.062;2023-04-21T11:02:54;14.90;;;7.10;;
52898;SDS011;38763;53.096;6.062;2023-04-21T11:05:26;17.02;;;7.97;;
52898;SDS011;38763;53.096;6.062;2023-04-21T11:08:00;18.35;;;8.23;;
52898;SDS011;38763;53.096;6.062;2023-04-21T11:10:40;13.48;;;8.05;;
52898;SDS011;38763;53.096;6.062;2023-04-21T11:13:06;17.90;;;8.25;;
52898;SDS011;38763;53.096;6.062;2023-04-21T11:15:32;14.00;;;8.00;;
52898;SDS011;38763;53.096;6.062;2023-04-21T11:17:57;13.18;;;7.60;;
52898;SDS011;38763;53.096;6.062;2023-04-21T11:20:23;14.43;;;7.47;;
52898;SDS011;38763;53.096;6.062;2023-04-21T11:22:50;13.13;;;6.82;;
52898;SDS011;38763;53.096;6.062;2023-04-21T11:25:17;12.93;;;6.50;;
52898;SDS011;38763;53.096;6.062;2023-04-21T11:27:51;19.80;;;8.35;;
52898;SDS011;38763;53.096;6.062;2023-04-21T11:30:21;13.90;;;7.95;;
52898;SDS011;38763;53.096;6.062;2023-04-21T11:32:56;12.98;;;7.03;;
52898;SDS011;38763;53.096;6.062;2023-04-21T11:35:22;16.92;;;7.63;;
52898;SDS011;38763;53.096;6.062;2023-04-21T11:37:51;10.27;;;5.85;;
52898;SDS011;38763;53.096;6.062;2023-04-21T11:40:17;13.10;;;6.90;;
52898;SDS011;38763;53.096;6.062;2023-04-21T11:42:43;16.95;;;7.20;;
52898;SDS011;38763;53.096;6.062;2023-04-21T11:45:15;14.68;;;7.15;;
52898;SDS011;38763;53.096;6.062;2023-04-21T11:47:41;13.25;;;6.95;;
52898;SDS011;38763;53.096;6.062;2023-04-21T11:50:07;16.63;;;7.93;;
52898;SDS011;38763;53.096;6.062;2023-04-21T11:52:34;12.73;;;6.85;;
52898;SDS011;38763;53.096;6.062;2023-04-21T11:57:39;15.40;;;6.70;;
52898;SDS011;38763;53.096;6.062;2023-04-21T12:00:05;13.50;;;6.47;;
52898;SDS011;38763;53.096;6.062;2023-04-21T12:02:37;12.77;;;5.80;;
52898;SDS011;38763;53.096;6.062;2023-04-21T12:07:48;14.85;;;6.38;;
52898;SDS011;38763;53.096;6.062;2023-04-21T12:10:17;12.98;;;6.18;;
52898;SDS011;38763;53.096;6.062;2023-04-21T12:12:44;14.15;;;6.80;;
52898;SDS011;38763;53.096;6.062;2023-04-21T12:15:11;10.70;;;5.25;;
52898;SDS011;38763;53.096;6.062;2023-04-21T12:20:08;12.73;;;5.93;;
52898;SDS011;38763;53.096;6.062;2023-04-21T12:22:34;9.25;;;4.88;;
52898;SDS011;38763;53.096;6.062;2023-04-21T12:25:00;16.20;;;5.70;;
52898;SDS011;38763;53.096;6.062;2023-04-21T12:27:26;8.43;;;5.13;;
52898;SDS011;38763;53.096;6.062;2023-04-21T12:29:52;15.48;;;5.60;;
52898;SDS011;38763;53.096;6.062;2023-04-21T12:32:17;11.50;;;5.68;;
52898;SDS011;38763;53.096;6.062;2023-04-21T12:34:44;13.15;;;5.70;;
52898;SDS011;38763;53.096;6.062;2023-04-21T12:37:10;9.77;;;4.13;;
52898;SDS011;38763;53.096;6.062;2023-04-21T12:39:35;6.85;;;4.32;;
52898;SDS011;38763;53.096;6.062;2023-04-21T12:42:01;12.60;;;4.50;;
52898;SDS011;38763;53.096;6.062;2023-04-21T12:44:27;12.35;;;3.88;;
52898;SDS011;38763;53.096;6.062;2023-04-21T12:46:52;14.88;;;4.55;;
52898;SDS011;38763;53.096;6.062;2023-04-21T12:49:18;12.77;;;4.53;;
52898;SDS011;38763;53.096;6.062;2023-04-21T12:51:44;14.00;;;4.35;;
52898;SDS011;38763;53.096;6.062;2023-04-21T12:54:11;12.70;;;4.43;;
52898;SDS011;38763;53.096;6.062;2023-04-21T12:56:37;14.80;;;4.55;;
52898;SDS011;38763;53.096;6.062;2023-04-21T12:59:05;9.68;;;4.28;;
52898;SDS011;38763;53.096;6.062;2023-04-21T13:01:31;11.05;;;4.25;;
52898;SDS011;38763;53.096;6.062;2023-04-21T13:03:57;15.90;;;5.05;;
52898;SDS011;38763;53.096;6.062;2023-04-21T13:06:23;11.90;;;4.45;;
52898;SDS011;38763;53.096;6.062;2023-04-21T13:08:49;8.45;;;3.70;;
52898;SDS011;38763;53.096;6.062;2023-04-21T13:11:15;12.98;;;4.20;;
52898;SDS011;38763;53.096;6.062;2023-04-21T13:13:40;8.55;;;4.32;;
52898;SDS011;38763;53.096;6.062;2023-04-21T13:16:06;8.52;;;3.63;;
52898;SDS011;38763;53.096;6.062;2023-04-21T13:18:31;13.27;;;4.07;;
52898;SDS011;38763;53.096;6.062;2023-04-21T13:21:01;11.25;;;4.07;;
52898;SDS011;38763;53.096;6.062;2023-04-21T13:23:27;11.43;;;4.45;;
52898;SDS011;38763;53.096;6.062;2023-04-21T13:25:52;10.60;;;4.63;;
52898;SDS011;38763;53.096;6.062;2023-04-21T13:28:18;11.68;;;4.28;;
52898;SDS011;38763;53.096;6.062;2023-04-21T13:30:44;14.63;;;4.18;;
52898;SDS011;38763;53.096;6.062;2023-04-21T13:33:10;8.15;;;4.15;;
52898;SDS011;38763;53.096;6.062;2023-04-21T13:35:36;9.55;;;3.85;;
52898;SDS011;38763;53.096;6.062;2023-04-21T13:38:02;10.50;;;3.80;;
52898;SDS011;38763;53.096;6.062;2023-04-21T13:40:28;8.95;;;4.05;;
52898;SDS011;38763;53.096;6.062;2023-04-21T13:42:55;8.35;;;3.65;;
52898;SDS011;38763;53.096;6.062;2023-04-21T13:45:22;8.10;;;3.20;;
52898;SDS011;38763;53.096;6.062;2023-04-21T13:47:48;9.48;;;3.45;;
52898;SDS011;38763;53.096;6.062;2023-04-21T13:50:15;17.15;;;4.60;;
52898;SDS011;38763;53.096;6.062;2023-04-21T13:52:41;10.15;;;3.92;;
52898;SDS011;38763;53.096;6.062;2023-04-21T13:55:07;9.85;;;4.03;;
52898;SDS011;38763;53.096;6.062;2023-04-21T13:57:33;14.55;;;3.60;;
52898;SDS011;38763;53.096;6.062;2023-04-21T13:59:58;9.80;;;3.90;;
52898;SDS011;38763;53.096;6.062;2023-04-21T14:02:24;9.68;;;3.88;;
52898;SDS011;38763;53.096;6.062;2023-04-21T14:04:50;9.20;;;3.63;;
52898;SDS011;38763;53.096;6.062;2023-04-21T14:07:16;9.57;;;3.53;;
52898;SDS011;38763;53.096;6.062;2023-04-21T14:09:44;6.63;;;3.00;;
52898;SDS011;38763;53.096;6.062;2023-04-21T14:12:10;7.13;;;3.15;;
52898;SDS011;38763;53.096;6.062;2023-04-21T14:14:36;10.05;;;3.38;;
52898;SDS011;38763;53.096;6.062;2023-04-21T14:17:01;10.65;;;3.55;;
52898;SDS011;38763;53.096;6.062;2023-04-21T14:19:28;11.43;;;3.38;;
52898;SDS011;38763;53.096;6.062;2023-04-21T14:21:54;6.18;;;3.13;;
52898;SDS011;38763;53.096;6.062;2023-04-21T14:24:19;6.88;;;3.00;;
52898;SDS011;38763;53.096;6.062;2023-04-21T14:26:46;8.95;;;3.42;;
52898;SDS011;38763;53.096;6.062;2023-04-21T14:29:12;11.38;;;3.13;;
52898;SDS011;38763;53.096;6.062;2023-04-21T14:31:37;8.18;;;3.35;;
52898;SDS011;38763;53.096;6.062;2023-04-21T14:34:03;10.77;;;3.20;;